sensor_id;sensor_type;location;lat;lon;timestamp;P1;durP1;ratioP1;P2;durP2;ratioP2
25868;SDS011;13688;53.154;18.136;2023-03-23T00:02:32;31.40;;;19.60;;
25868;SDS011;13688;53.154;18.136;2023-03-23T00:07:54;31.40;;;19.55;;
25868;SDS011;13688;53.154;18.136;2023-03-23T00:13:18;33.65;;;19.25;;
25868;SDS011;13688;53.154;18.136;2023-03-23T00:18:41;32.33;;;18.97;;
25868;SDS011;13688;53.154;18.136;2023-03-23T00:29:29;31.87;;;18.10;;
25868;SDS011;13688;53.154;18.136;2023-03-23T00:34:50;26.55;;;17.95;;
25868;SDS011;13688;53.154;18.136;2023-03-23T00:40:12;26.33;;;16.90;;
25868;SDS011;13688;53.154;18.136;2023-03-23T00:45:35;29.85;;;18.25;;
25868;SDS011;13688;53.154;18.136;2023-03-23T00:51:02;27.00;;;16.43;;
25868;SDS011;13688;53.154;18.136;2023-03-23T00:56:24;26.27;;;16.13;;
25868;SDS011;13688;53.154;18.136;2023-03-23T01:01:46;26.68;;;17.10;;
25868;SDS011;13688;53.154;18.136;2023-03-23T01:07:07;28.60;;;16.75;;
25868;SDS011;13688;53.154;18.136;2023-03-23T01:12:33;28.57;;;17.82;;
25868;SDS011;13688;53.154;18.136;2023-03-23T01:17:55;28.05;;;17.23;;
25868;SDS011;13688;53.154;18.136;2023-03-23T01:23:20;25.02;;;17.17;;
25868;SDS011;13688;53.154;18.136;2023-03-23T01:28:48;25.95;;;15.43;;
25868;SDS011;13688;53.154;18.136;2023-03-23T01:34:10;25.50;;;15.53;;
25868;SDS011;13688;53.154;18.136;2023-03-23T01:39:31;25.65;;;14.35;;
25868;SDS011;13688;53.154;18.136;2023-03-23T01:50:32;23.10;;;14.30;;
25868;SDS011;13688;53.154;18.136;2023-03-23T01:56:06;22.73;;;13.80;;
25868;SDS011;13688;53.154;18.136;2023-03-23T02:01:31;24.30;;;13.68;;
25868;SDS011;13688;53.154;18.136;2023-03-23T02:06:55;21.82;;;13.60;;
25868;SDS011;13688;53.154;18.136;2023-03-23T02:12:17;24.92;;;13.22;;
25868;SDS011;13688;53.154;18.136;2023-03-23T02:17:46;25.23;;;14.00;;
25868;SDS011;13688;53.154;18.136;2023-03-23T02:23:35;26.10;;;14.80;;
25868;SDS011;13688;53.154;18.136;2023-03-23T02:35:14;21.75;;;13.22;;
25868;SDS011;13688;53.154;18.136;2023-03-23T02:40:47;28.60;;;15.23;;
25868;SDS011;13688;53.154;18.136;2023-03-23T02:46:11;26.87;;;15.93;;
25868;SDS011;13688;53.154;18.136;2023-03-23T02:51:35;25.77;;;14.35;;
25868;SDS011;13688;53.154;18.136;2023-03-23T02:56:59;28.02;;;15.25;;
25868;SDS011;13688;53.154;18.136;2023-03-23T03:02:28;26.25;;;14.93;;
25868;SDS011;13688;53.154;18.136;2023-03-23T03:07:59;28.42;;;14.38;;
25868;SDS011;13688;53.154;18.136;2023-03-23T03:19:32;26.03;;;15.80;;
25868;SDS011;13688;53.154;18.136;2023-03-23T03:24:56;31.27;;;17.03;;
25868;SDS011;13688;53.154;18.136;2023-03-23T03:30:23;29.40;;;16.83;;
25868;SDS011;13688;53.154;18.136;2023-03-23T03:35:46;32.13;;;15.67;;
25868;SDS011;13688;53.154;18.136;2023-03-23T03:41:11;32.03;;;15.67;;
25868;SDS011;13688;53.154;18.136;2023-03-23T03:46:33;33.15;;;16.75;;
25868;SDS011;13688;53.154;18.136;2023-03-23T03:51:54;30.80;;;15.58;;
25868;SDS011;13688;53.154;18.136;2023-03-23T03:57:17;34.03;;;16.95;;
25868;SDS011;13688;53.154;18.136;2023-03-23T04:02:44;27.87;;;15.97;;
25868;SDS011;13688;53.154;18.136;2023-03-23T04:08:03;30.97;;;16.00;;
25868;SDS011;13688;53.154;18.136;2023-03-23T04:13:26;26.40;;;15.60;;
25868;SDS011;13688;53.154;18.136;2023-03-23T04:18:47;26.40;;;15.10;;
25868;SDS011;13688;53.154;18.136;2023-03-23T04:24:08;27.77;;;15.60;;
25868;SDS011;13688;53.154;18.136;2023-03-23T04:29:32;30.77;;;15.25;;
25868;SDS011;13688;53.154;18.136;2023-03-23T04:34:55;25.95;;;14.10;;
25868;SDS011;13688;53.154;18.136;2023-03-23T04:40:19;28.83;;;14.87;;
25868;SDS011;13688;53.154;18.136;2023-03-23T04:45:41;22.15;;;14.50;;
25868;SDS011;13688;53.154;18.136;2023-03-23T04:51:05;22.13;;;14.25;;
25868;SDS011;13688;53.154;18.136;2023-03-23T04:56:28;24.92;;;13.70;;
25868;SDS011;13688;53.154;18.136;2023-03-23T05:01:49;22.87;;;13.77;;
25868;SDS011;13688;53.154;18.136;2023-03-23T05:07:11;24.53;;;13.60;;
25868;SDS011;13688;53.154;18.136;2023-03-23T05:12:33;21.07;;;13.20;;
25868;SDS011;13688;53.154;18.136;2023-03-23T05:17:54;23.22;;;13.80;;
25868;SDS011;13688;53.154;18.136;2023-03-23T05:23:16;20.23;;;12.33;;
25868;SDS011;13688;53.154;18.136;2023-03-23T05:28:38;21.07;;;12.43;;
25868;SDS011;13688;53.154;18.136;2023-03-23T05:33:59;26.73;;;13.32;;
25868;SDS011;13688;53.154;18.136;2023-03-23T05:39:21;19.60;;;12.43;;
25868;SDS011;13688;53.154;18.136;2023-03-23T05:44:42;19.23;;;11.95;;
25868;SDS011;13688;53.154;18.136;2023-03-23T05:50:05;22.33;;;11.57;;
25868;SDS011;13688;53.154;18.136;2023-03-23T05:55:27;19.62;;;11.20;;
25868;SDS011;13688;53.154;18.136;2023-03-23T06:00:50;16.93;;;10.60;;
25868;SDS011;13688;53.154;18.136;2023-03-23T06:06:14;19.40;;;11.43;;
25868;SDS011;13688;53.154;18.136;2023-03-23T06:11:37;17.60;;;10.38;;
25868;SDS011;13688;53.154;18.136;2023-03-23T06:16:59;20.88;;;10.95;;
25868;SDS011;13688;53.154;18.136;2023-03-23T06:22:20;24.57;;;11.80;;
25868;SDS011;13688;53.154;18.136;2023-03-23T06:27:41;21.33;;;11.50;;
25868;SDS011;13688;53.154;18.136;2023-03-23T06:33:03;17.02;;;9.85;;
25868;SDS011;13688;53.154;18.136;2023-03-23T06:38:24;20.77;;;9.73;;
25868;SDS011;13688;53.154;18.136;2023-03-23T06:43:45;16.70;;;9.48;;
25868;SDS011;13688;53.154;18.136;2023-03-23T06:49:08;19.17;;;9.60;;
25868;SDS011;13688;53.154;18.136;2023-03-23T06:54:31;25.97;;;9.73;;
25868;SDS011;13688;53.154;18.136;2023-03-23T06:59:52;24.52;;;9.43;;
25868;SDS011;13688;53.154;18.136;2023-03-23T07:05:16;22.90;;;9.38;;
25868;SDS011;13688;53.154;18.136;2023-03-23T07:10:38;14.18;;;7.90;;
25868;SDS011;13688;53.154;18.136;2023-03-23T07:16:00;14.78;;;7.17;;
25868;SDS011;13688;53.154;18.136;2023-03-23T07:21:22;13.65;;;6.87;;
25868;SDS011;13688;53.154;18.136;2023-03-23T07:26:43;15.50;;;7.00;;
25868;SDS011;13688;53.154;18.136;2023-03-23T07:32:05;21.43;;;7.17;;
25868;SDS011;13688;53.154;18.136;2023-03-23T07:37:27;12.43;;;5.70;;
25868;SDS011;13688;53.154;18.136;2023-03-23T07:42:54;11.03;;;4.80;;
25868;SDS011;13688;53.154;18.136;2023-03-23T07:48:16;8.83;;;4.47;;
25868;SDS011;13688;53.154;18.136;2023-03-23T07:53:38;12.30;;;3.92;;
25868;SDS011;13688;53.154;18.136;2023-03-23T07:58:59;7.70;;;3.80;;
25868;SDS011;13688;53.154;18.136;2023-03-23T08:04:20;11.75;;;4.03;;
25868;SDS011;13688;53.154;18.136;2023-03-23T08:09:42;7.55;;;3.85;;
25868;SDS011;13688;53.154;18.136;2023-03-23T08:15:04;8.60;;;3.50;;
25868;SDS011;13688;53.154;18.136;2023-03-23T08:20:27;6.37;;;3.12;;
25868;SDS011;13688;53.154;18.136;2023-03-23T08:25:53;7.00;;;3.13;;
25868;SDS011;13688;53.154;18.136;2023-03-23T08:31:16;7.35;;;3.33;;
25868;SDS011;13688;53.154;18.136;2023-03-23T08:36:39;8.25;;;3.47;;
25868;SDS011;13688;53.154;18.136;2023-03-23T08:42:00;7.17;;;3.20;;
25868;SDS011;13688;53.154;18.136;2023-03-23T08:47:21;5.47;;;3.00;;
25868;SDS011;13688;53.154;18.136;2023-03-23T08:52:43;5.03;;;2.93;;
25868;SDS011;13688;53.154;18.136;2023-03-23T08:58:05;6.17;;;2.40;;
25868;SDS011;13688;53.154;18.136;2023-03-23T09:03:26;7.83;;;2.80;;
25868;SDS011;13688;53.154;18.136;2023-03-23T09:08:49;5.93;;;2.40;;
25868;SDS011;13688;53.154;18.136;2023-03-23T09:14:11;4.17;;;2.53;;
25868;SDS011;13688;53.154;18.136;2023-03-23T09:19:32;6.22;;;2.47;;
25868;SDS011;13688;53.154;18.136;2023-03-23T09:24:54;7.80;;;2.42;;
25868;SDS011;13688;53.154;18.136;2023-03-23T09:30:16;4.83;;;2.60;;
25868;SDS011;13688;53.154;18.136;2023-03-23T09:35:41;3.85;;;2.40;;
25868;SDS011;13688;53.154;18.136;2023-03-23T09:52:14;5.47;;;2.95;;
25868;SDS011;13688;53.154;18.136;2023-03-23T09:57:47;3.85;;;2.40;;
25868;SDS011;13688;53.154;18.136;2023-03-23T10:03:26;5.45;;;2.60;;
25868;SDS011;13688;53.154;18.136;2023-03-23T10:08:55;4.35;;;2.37;;
25868;SDS011;13688;53.154;18.136;2023-03-23T10:14:34;5.53;;;2.73;;
25868;SDS011;13688;53.154;18.136;2023-03-23T10:26:02;8.53;;;2.70;;
25868;SDS011;13688;53.154;18.136;2023-03-23T10:31:43;8.23;;;3.27;;
25868;SDS011;13688;53.154;18.136;2023-03-23T10:37:18;4.87;;;2.60;;
25868;SDS011;13688;53.154;18.136;2023-03-23T10:42:40;8.03;;;3.00;;
25868;SDS011;13688;53.154;18.136;2023-03-23T10:48:09;5.53;;;2.57;;
25868;SDS011;13688;53.154;18.136;2023-03-23T10:53:44;4.10;;;2.50;;
25868;SDS011;13688;53.154;18.136;2023-03-23T10:59:29;2.83;;;2.10;;
25868;SDS011;13688;53.154;18.136;2023-03-23T11:04:54;6.20;;;2.52;;
25868;SDS011;13688;53.154;18.136;2023-03-23T11:10:21;7.87;;;2.70;;
25868;SDS011;13688;53.154;18.136;2023-03-23T11:15:49;7.33;;;2.87;;
25868;SDS011;13688;53.154;18.136;2023-03-23T11:21:11;4.92;;;2.62;;
25868;SDS011;13688;53.154;18.136;2023-03-23T11:26:43;5.37;;;3.20;;
25868;SDS011;13688;53.154;18.136;2023-03-23T11:32:11;6.47;;;2.98;;
25868;SDS011;13688;53.154;18.136;2023-03-23T11:37:44;5.70;;;3.00;;
25868;SDS011;13688;53.154;18.136;2023-03-23T11:43:22;5.53;;;2.77;;
25868;SDS011;13688;53.154;18.136;2023-03-23T11:48:51;5.70;;;2.45;;
25868;SDS011;13688;53.154;18.136;2023-03-23T11:54:26;3.30;;;2.15;;
25868;SDS011;13688;53.154;18.136;2023-03-23T11:59:50;3.08;;;2.20;;
25868;SDS011;13688;53.154;18.136;2023-03-23T12:05:27;3.87;;;2.13;;
25868;SDS011;13688;53.154;18.136;2023-03-23T12:10:54;4.28;;;2.27;;
25868;SDS011;13688;53.154;18.136;2023-03-23T12:16:37;4.65;;;2.00;;
25868;SDS011;13688;53.154;18.136;2023-03-23T12:45:18;3.67;;;1.87;;
25868;SDS011;13688;53.154;18.136;2023-03-23T12:56:26;4.27;;;1.83;;
25868;SDS011;13688;53.154;18.136;2023-03-23T13:02:25;3.60;;;1.70;;
25868;SDS011;13688;53.154;18.136;2023-03-23T13:08:00;4.67;;;2.05;;
25868;SDS011;13688;53.154;18.136;2023-03-23T13:13:45;3.35;;;1.87;;
25868;SDS011;13688;53.154;18.136;2023-03-23T13:19:24;3.75;;;2.67;;
25868;SDS011;13688;53.154;18.136;2023-03-23T13:24:56;3.65;;;1.82;;
25868;SDS011;13688;53.154;18.136;2023-03-23T13:30:18;5.42;;;2.25;;
25868;SDS011;13688;53.154;18.136;2023-03-23T13:35:40;6.45;;;2.62;;
25868;SDS011;13688;53.154;18.136;2023-03-23T13:41:12;4.40;;;2.80;;
25868;SDS011;13688;53.154;18.136;2023-03-23T13:46:34;4.62;;;2.65;;
25868;SDS011;13688;53.154;18.136;2023-03-23T13:52:16;4.45;;;2.58;;
25868;SDS011;13688;53.154;18.136;2023-03-23T14:03:38;4.05;;;2.45;;
25868;SDS011;13688;53.154;18.136;2023-03-23T14:14:54;6.90;;;2.50;;
25868;SDS011;13688;53.154;18.136;2023-03-23T14:25:42;3.67;;;2.60;;
25868;SDS011;13688;53.154;18.136;2023-03-23T14:31:35;5.97;;;2.45;;
25868;SDS011;13688;53.154;18.136;2023-03-23T14:36:50;4.12;;;2.20;;
25868;SDS011;13688;53.154;18.136;2023-03-23T14:42:28;3.10;;;2.10;;
25868;SDS011;13688;53.154;18.136;2023-03-23T14:48:01;4.47;;;2.30;;
25868;SDS011;13688;53.154;18.136;2023-03-23T14:53:59;4.57;;;2.40;;
25868;SDS011;13688;53.154;18.136;2023-03-23T14:59:22;5.95;;;2.77;;
25868;SDS011;13688;53.154;18.136;2023-03-23T15:04:45;4.00;;;2.90;;
25868;SDS011;13688;53.154;18.136;2023-03-23T15:10:14;3.77;;;2.50;;
25868;SDS011;13688;53.154;18.136;2023-03-23T15:15:37;5.13;;;2.40;;
25868;SDS011;13688;53.154;18.136;2023-03-23T15:21:11;2.22;;;1.80;;
25868;SDS011;13688;53.154;18.136;2023-03-23T15:26:42;4.85;;;2.20;;
25868;SDS011;13688;53.154;18.136;2023-03-23T15:32:09;4.77;;;2.40;;
25868;SDS011;13688;53.154;18.136;2023-03-23T15:37:32;4.30;;;1.95;;
25868;SDS011;13688;53.154;18.136;2023-03-23T15:43:19;6.00;;;2.30;;
25868;SDS011;13688;53.154;18.136;2023-03-23T15:48:50;4.20;;;3.00;;
25868;SDS011;13688;53.154;18.136;2023-03-23T15:54:18;6.20;;;2.58;;
25868;SDS011;13688;53.154;18.136;2023-03-23T15:59:48;2.58;;;1.92;;
25868;SDS011;13688;53.154;18.136;2023-03-23T16:05:13;5.00;;;2.33;;
25868;SDS011;13688;53.154;18.136;2023-03-23T16:10:37;4.72;;;2.90;;
25868;SDS011;13688;53.154;18.136;2023-03-23T16:16:05;5.40;;;3.15;;
25868;SDS011;13688;53.154;18.136;2023-03-23T16:21:52;4.58;;;2.90;;
25868;SDS011;13688;53.154;18.136;2023-03-23T16:27:16;4.45;;;2.65;;
25868;SDS011;13688;53.154;18.136;2023-03-23T16:32:39;5.20;;;2.73;;
25868;SDS011;13688;53.154;18.136;2023-03-23T16:38:02;5.65;;;3.05;;
25868;SDS011;13688;53.154;18.136;2023-03-23T16:43:27;5.35;;;2.60;;
25868;SDS011;13688;53.154;18.136;2023-03-23T16:48:50;6.10;;;3.03;;
25868;SDS011;13688;53.154;18.136;2023-03-23T16:54:12;4.50;;;2.80;;
25868;SDS011;13688;53.154;18.136;2023-03-23T16:59:39;6.15;;;3.60;;
25868;SDS011;13688;53.154;18.136;2023-03-23T17:05:03;4.72;;;2.98;;
25868;SDS011;13688;53.154;18.136;2023-03-23T17:10:29;9.25;;;3.40;;
25868;SDS011;13688;53.154;18.136;2023-03-23T17:15:57;5.95;;;3.17;;
25868;SDS011;13688;53.154;18.136;2023-03-23T17:21:27;6.20;;;3.10;;
25868;SDS011;13688;53.154;18.136;2023-03-23T17:26:54;11.20;;;6.03;;
25868;SDS011;13688;53.154;18.136;2023-03-23T17:32:17;9.35;;;4.87;;
25868;SDS011;13688;53.154;18.136;2023-03-23T17:37:39;7.85;;;4.37;;
25868;SDS011;13688;53.154;18.136;2023-03-23T17:43:08;7.53;;;4.75;;
25868;SDS011;13688;53.154;18.136;2023-03-23T17:48:34;7.15;;;4.37;;
25868;SDS011;13688;53.154;18.136;2023-03-23T17:54:06;7.70;;;4.28;;
25868;SDS011;13688;53.154;18.136;2023-03-23T17:59:31;7.28;;;4.25;;
25868;SDS011;13688;53.154;18.136;2023-03-23T18:05:01;9.90;;;4.23;;
25868;SDS011;13688;53.154;18.136;2023-03-23T18:10:24;9.88;;;4.25;;
25868;SDS011;13688;53.154;18.136;2023-03-23T18:15:47;9.78;;;3.98;;
25868;SDS011;13688;53.154;18.136;2023-03-23T18:21:10;6.40;;;3.50;;
25868;SDS011;13688;53.154;18.136;2023-03-23T18:26:33;5.80;;;3.53;;
25868;SDS011;13688;53.154;18.136;2023-03-23T18:31:55;7.60;;;3.45;;
25868;SDS011;13688;53.154;18.136;2023-03-23T18:37:19;6.12;;;3.52;;
25868;SDS011;13688;53.154;18.136;2023-03-23T18:42:51;7.93;;;3.83;;
25868;SDS011;13688;53.154;18.136;2023-03-23T18:48:14;7.47;;;4.30;;
25868;SDS011;13688;53.154;18.136;2023-03-23T18:53:40;6.58;;;3.70;;
25868;SDS011;13688;53.154;18.136;2023-03-23T18:59:08;5.78;;;3.27;;
25868;SDS011;13688;53.154;18.136;2023-03-23T19:04:32;5.70;;;3.60;;
25868;SDS011;13688;53.154;18.136;2023-03-23T19:09:56;6.78;;;3.58;;
25868;SDS011;13688;53.154;18.136;2023-03-23T19:15:20;10.70;;;5.63;;
25868;SDS011;13688;53.154;18.136;2023-03-23T19:20:45;12.07;;;6.70;;
25868;SDS011;13688;53.154;18.136;2023-03-23T19:26:23;11.57;;;5.97;;
25868;SDS011;13688;53.154;18.136;2023-03-23T19:31:54;11.43;;;7.00;;
25868;SDS011;13688;53.154;18.136;2023-03-23T19:37:18;13.65;;;6.47;;
25868;SDS011;13688;53.154;18.136;2023-03-23T19:42:44;9.63;;;6.03;;
25868;SDS011;13688;53.154;18.136;2023-03-23T19:48:16;11.65;;;6.53;;
25868;SDS011;13688;53.154;18.136;2023-03-23T19:53:49;10.15;;;4.97;;
25868;SDS011;13688;53.154;18.136;2023-03-23T19:59:12;6.25;;;4.15;;
25868;SDS011;13688;53.154;18.136;2023-03-23T20:04:36;7.70;;;4.35;;
25868;SDS011;13688;53.154;18.136;2023-03-23T20:10:00;10.05;;;4.30;;
25868;SDS011;13688;53.154;18.136;2023-03-23T20:15:23;9.90;;;4.65;;
25868;SDS011;13688;53.154;18.136;2023-03-23T20:20:47;8.40;;;4.62;;
25868;SDS011;13688;53.154;18.136;2023-03-23T20:26:24;7.95;;;4.12;;
25868;SDS011;13688;53.154;18.136;2023-03-23T20:31:51;7.58;;;4.10;;
25868;SDS011;13688;53.154;18.136;2023-03-23T20:37:15;82.08;;;59.27;;
25868;SDS011;13688;53.154;18.136;2023-03-23T20:42:40;9.67;;;5.23;;
25868;SDS011;13688;53.154;18.136;2023-03-23T20:48:05;9.93;;;5.20;;
25868;SDS011;13688;53.154;18.136;2023-03-23T20:53:28;11.30;;;6.00;;
25868;SDS011;13688;53.154;18.136;2023-03-23T20:58:53;10.23;;;5.27;;
25868;SDS011;13688;53.154;18.136;2023-03-23T21:04:21;11.70;;;5.40;;
25868;SDS011;13688;53.154;18.136;2023-03-23T21:09:42;11.33;;;5.67;;
25868;SDS011;13688;53.154;18.136;2023-03-23T21:15:05;12.13;;;6.37;;
25868;SDS011;13688;53.154;18.136;2023-03-23T21:20:27;7.67;;;5.13;;
25868;SDS011;13688;53.154;18.136;2023-03-23T21:25:52;11.10;;;5.70;;
25868;SDS011;13688;53.154;18.136;2023-03-23T21:31:18;7.78;;;5.20;;
25868;SDS011;13688;53.154;18.136;2023-03-23T21:36:42;9.20;;;5.40;;
25868;SDS011;13688;53.154;18.136;2023-03-23T21:42:04;11.93;;;4.97;;
25868;SDS011;13688;53.154;18.136;2023-03-23T21:47:40;15.17;;;9.17;;
25868;SDS011;13688;53.154;18.136;2023-03-23T21:53:03;11.87;;;6.67;;
25868;SDS011;13688;53.154;18.136;2023-03-23T21:58:28;13.43;;;6.37;;
25868;SDS011;13688;53.154;18.136;2023-03-23T22:03:51;10.10;;;5.70;;
25868;SDS011;13688;53.154;18.136;2023-03-23T22:09:13;11.43;;;6.63;;
25868;SDS011;13688;53.154;18.136;2023-03-23T22:14:37;15.67;;;8.40;;
25868;SDS011;13688;53.154;18.136;2023-03-23T22:20:00;14.58;;;8.55;;
25868;SDS011;13688;53.154;18.136;2023-03-23T22:25:24;13.50;;;7.40;;
25868;SDS011;13688;53.154;18.136;2023-03-23T22:30:47;12.83;;;7.43;;
25868;SDS011;13688;53.154;18.136;2023-03-23T22:36:19;13.30;;;7.17;;
25868;SDS011;13688;53.154;18.136;2023-03-23T22:41:44;12.70;;;7.37;;
25868;SDS011;13688;53.154;18.136;2023-03-23T22:47:06;11.68;;;8.05;;
25868;SDS011;13688;53.154;18.136;2023-03-23T22:52:29;10.88;;;7.65;;
25868;SDS011;13688;53.154;18.136;2023-03-23T22:57:52;14.38;;;8.20;;
25868;SDS011;13688;53.154;18.136;2023-03-23T23:03:14;15.43;;;9.45;;
25868;SDS011;13688;53.154;18.136;2023-03-23T23:08:39;14.65;;;8.60;;
25868;SDS011;13688;53.154;18.136;2023-03-23T23:14:03;16.70;;;9.93;;
25868;SDS011;13688;53.154;18.136;2023-03-23T23:19:25;15.18;;;10.05;;
25868;SDS011;13688;53.154;18.136;2023-03-23T23:24:47;17.70;;;10.43;;
25868;SDS011;13688;53.154;18.136;2023-03-23T23:30:10;14.73;;;10.33;;
25868;SDS011;13688;53.154;18.136;2023-03-23T23:35:36;18.60;;;11.83;;
25868;SDS011;13688;53.154;18.136;2023-03-23T23:40:59;22.90;;;12.20;;
25868;SDS011;13688;53.154;18.136;2023-03-23T23:46:21;22.55;;;13.18;;
25868;SDS011;13688;53.154;18.136;2023-03-23T23:51:45;21.90;;;11.90;;
25868;SDS011;13688;53.154;18.136;2023-03-23T23:57:08;21.57;;;11.73;;
